Terminal Aerodrome Forecast
Issued by NWS Cleveland, OH

Home | Current Version | Previous Version | Graphics & Text | Print | Product List | Glossary Off
Versions: 1 2 3 4 5 6 7 8 9 10 11 12 13 14 15 16 17 18 19 20 21 22 23 24 25 26

000
FTUS41 KCLE 040921 AAA
TAFCAK
TAF AMD
KCAK 040921Z 0409/0506 29003KT 6SM -SHRA BR BKN050 OVC150
      TEMPO 0409/0411 4SM -TSRA BR BKN035CB OVC050
     FM041200 VRB04KT 6SM BR BKN040
     FM041400 18006KT P6SM SCT025
     FM050000 15003KT P6SM SCT050 BKN250=

USA.gov is the U.S. government's official web portal to all federal, state and local government web resources and services.